Iaşi, România

07:46 AM EET on februarie 08, 2016 (GMT +0200)
Iasi | | Change Station
CLOSE
Current Station
Aeroport
Location: Iasi,
Elevation: 338 ft
Nearby Weather Stations

Elev 338 ft 47.16 °N, 27.63 °E | Updated 16 minutes ago

Clear
Cer senin
32 °F
Feels Like 25 °F
N
8
Vânt variabil Vânt from SSE

astăzi
High -- | Low -- °F
--% Chance of Precip.
Ieri
High -- | Low -- °F
Precip. -- inch
Presiunea 30.18 inch
Vizibilitatea -9999.0 mile
Nori
Vânt rece 25 °F
Punctul de rouă 25 °F
Umiditatea 75%
Precipitaţii 0.00 inch
Adâncimea zăpezii Not available.
7:26 AM 5:21 PM
Semilună în descreştere, 0% visible
METAR LRIA 080530Z 15007KT CAVOK 00/M04 Q1022
Presiunea 30.18 inch
Vizibilitatea -9999.0 mile
Nori
Vânt rece 25 °F
Punctul de rouă 25 °F
Umiditatea 75%
Precipitaţii 0.00 inch
Adâncimea zăpezii Not available.
7:26 AM 5:21 PM
Semilună în descreştere, 0% visible
METAR LRIA 080530Z 15007KT CAVOK 00/M04 Q1022

10-Day Weather Forecast

Almanac

Astronomie

Feb. 08, 2016 Răsărit Apus
Timpul Actual
Crepusculul Civil
Crepusculul nautic
Răsărit Astronomic
Luna
Durata zilei lumină
Lungimea zilei
Tomorrow will be .
, % of the Moon is Illuminated

Extremele de azi

Country Highs Country Lows

Community

WunderPhotos

Upload Photos

1,891,390 photos uploaded!

WunderBlog® & News

Nearby

Calitatea aerului

  Calitatea aerului Index de calitate a aerului Poluat
Not available.

Adâncimea zapezii

Station Depth Elevation

Earthquake Activity

Oraş Distance Mag. Time & Date
Minimum magnitude displayed is 2.5.

Coastal Water Temperatures

Locul Temperatura

Stations

Nearby Weather Stations

Locaţia staţiei Temp Vânt rece Punctul de rouă Umiditatea Vânt Precip. Elev Actualizare Type